sensor_id;sensor_type;location;lat;lon;timestamp;temperature;humidity
27270;DHT22;14769;56.934;24.176;2022-07-05T00:00:00;19.00;99.90
27270;DHT22;14769;56.934;24.176;2022-07-05T00:01:02;19.00;99.90
27270;DHT22;14769;56.934;24.176;2022-07-05T00:02:04;19.00;99.90
27270;DHT22;14769;56.934;24.176;2022-07-05T00:03:06;19.00;99.90
27270;DHT22;14769;56.934;24.176;2022-07-05T00:04:08;19.10;99.90
27270;DHT22;14769;56.934;24.176;2022-07-05T00:05:10;19.10;99.90
27270;DHT22;14769;56.934;24.176;2022-07-05T00:06:12;19.10;99.90
27270;DHT22;14769;56.934;24.176;2022-07-05T00:07:14;19.10;99.90
27270;DHT22;14769;56.934;24.176;2022-07-05T00:08:19;19.10;99.90
27270;DHT22;14769;56.934;24.176;2022-07-05T00:09:21;19.20;99.90
27270;DHT22;14769;56.934;24.176;2022-07-05T00:10:22;19.20;99.90
27270;DHT22;14769;56.934;24.176;2022-07-05T00:11:24;19.10;99.90
27270;DHT22;14769;56.934;24.176;2022-07-05T00:12:29;19.10;99.90
27270;DHT22;14769;56.934;24.176;2022-07-05T00:13:33;19.10;99.90
27270;DHT22;14769;56.934;24.176;2022-07-05T00:14:35;19.10;99.90
27270;DHT22;14769;56.934;24.176;2022-07-05T00:15:37;19.00;99.90
27270;DHT22;14769;56.934;24.176;2022-07-05T00:16:39;19.00;99.90
27270;DHT22;14769;56.934;24.176;2022-07-05T00:17:41;19.00;99.90
27270;DHT22;14769;56.934;24.176;2022-07-05T00:18:43;19.00;99.90
27270;DHT22;14769;56.934;24.176;2022-07-05T00:19:44;19.10;99.90
27270;DHT22;14769;56.934;24.176;2022-07-05T00:20:46;19.00;99.90
27270;DHT22;14769;56.934;24.176;2022-07-05T00:21:48;19.10;99.90
27270;DHT22;14769;56.934;24.176;2022-07-05T00:22:50;19.00;99.90
27270;DHT22;14769;56.934;24.176;2022-07-05T00:23:52;19.00;99.90
27270;DHT22;14769;56.934;24.176;2022-07-05T00:24:54;18.90;99.90
27270;DHT22;14769;56.934;24.176;2022-07-05T00:25:56;19.00;99.90
27270;DHT22;14769;56.934;24.176;2022-07-05T00:26:58;18.90;99.90
27270;DHT22;14769;56.934;24.176;2022-07-05T00:28:00;18.90;99.90
27270;DHT22;14769;56.934;24.176;2022-07-05T00:29:02;18.90;99.90
27270;DHT22;14769;56.934;24.176;2022-07-05T00:30:05;18.90;99.90
27270;DHT22;14769;56.934;24.176;2022-07-05T00:31:07;18.90;99.90
27270;DHT22;14769;56.934;24.176;2022-07-05T00:32:09;18.90;99.90
27270;DHT22;14769;56.934;24.176;2022-07-05T00:33:11;18.90;99.90
27270;DHT22;14769;56.934;24.176;2022-07-05T00:34:13;18.90;99.90
27270;DHT22;14769;56.934;24.176;2022-07-05T00:35:15;18.90;99.90
27270;DHT22;14769;56.934;24.176;2022-07-05T00:36:17;18.90;99.90
27270;DHT22;14769;56.934;24.176;2022-07-05T00:37:19;18.80;99.90
27270;DHT22;14769;56.934;24.176;2022-07-05T00:38:21;18.90;99.90
27270;DHT22;14769;56.934;24.176;2022-07-05T00:39:22;18.80;99.90
27270;DHT22;14769;56.934;24.176;2022-07-05T00:40:24;18.80;99.90
27270;DHT22;14769;56.934;24.176;2022-07-05T00:41:26;18.80;99.90
27270;DHT22;14769;56.934;24.176;2022-07-05T00:42:28;18.80;99.90
27270;DHT22;14769;56.934;24.176;2022-07-05T00:43:30;18.80;99.90
27270;DHT22;14769;56.934;24.176;2022-07-05T00:44:36;18.80;99.90
27270;DHT22;14769;56.934;24.176;2022-07-05T00:45:39;18.80;99.90
27270;DHT22;14769;56.934;24.176;2022-07-05T00:46:42;18.70;99.90
27270;DHT22;14769;56.934;24.176;2022-07-05T00:47:45;18.70;99.90
27270;DHT22;14769;56.934;24.176;2022-07-05T00:48:46;18.70;99.90
27270;DHT22;14769;56.934;24.176;2022-07-05T00:49:49;18.70;99.90
27270;DHT22;14769;56.934;24.176;2022-07-05T00:50:51;18.60;99.90
27270;DHT22;14769;56.934;24.176;2022-07-05T00:51:53;18.60;99.90
27270;DHT22;14769;56.934;24.176;2022-07-05T00:53:14;18.60;99.90
27270;DHT22;14769;56.934;24.176;2022-07-05T00:54:16;18.60;99.90
27270;DHT22;14769;56.934;24.176;2022-07-05T00:55:18;18.60;99.90
27270;DHT22;14769;56.934;24.176;2022-07-05T00:56:20;18.60;99.90
27270;DHT22;14769;56.934;24.176;2022-07-05T00:57:24;18.50;99.90
27270;DHT22;14769;56.934;24.176;2022-07-05T00:58:27;18.50;99.90
27270;DHT22;14769;56.934;24.176;2022-07-05T00:59:30;18.50;99.90
27270;DHT22;14769;56.934;24.176;2022-07-05T01:00:32;18.50;99.90
27270;DHT22;14769;56.934;24.176;2022-07-05T01:01:35;18.50;99.90
27270;DHT22;14769;56.934;24.176;2022-07-05T01:02:37;18.50;99.90
27270;DHT22;14769;56.934;24.176;2022-07-05T01:03:39;18.50;99.90
27270;DHT22;14769;56.934;24.176;2022-07-05T01:04:41;18.50;99.90
27270;DHT22;14769;56.934;24.176;2022-07-05T01:05:44;18.40;99.90
27270;DHT22;14769;56.934;24.176;2022-07-05T01:06:48;18.40;99.90
27270;DHT22;14769;56.934;24.176;2022-07-05T01:07:51;18.40;99.90
27270;DHT22;14769;56.934;24.176;2022-07-05T01:08:53;18.40;99.90
27270;DHT22;14769;56.934;24.176;2022-07-05T01:09:56;18.40;99.90
27270;DHT22;14769;56.934;24.176;2022-07-05T01:10:59;18.30;99.90
27270;DHT22;14769;56.934;24.176;2022-07-05T01:12:00;18.30;99.90
27270;DHT22;14769;56.934;24.176;2022-07-05T01:13:03;18.30;99.90
27270;DHT22;14769;56.934;24.176;2022-07-05T01:14:05;18.30;99.90
27270;DHT22;14769;56.934;24.176;2022-07-05T01:15:13;18.20;99.90
27270;DHT22;14769;56.934;24.176;2022-07-05T01:16:15;18.20;99.90
27270;DHT22;14769;56.934;24.176;2022-07-05T01:17:18;18.20;99.90
27270;DHT22;14769;56.934;24.176;2022-07-05T01:18:21;18.10;99.90
27270;DHT22;14769;56.934;24.176;2022-07-05T01:19:24;18.10;99.90
27270;DHT22;14769;56.934;24.176;2022-07-05T01:20:26;18.10;99.90
27270;DHT22;14769;56.934;24.176;2022-07-05T01:21:29;18.00;99.90
27270;DHT22;14769;56.934;24.176;2022-07-05T01:22:55;18.00;99.90
27270;DHT22;14769;56.934;24.176;2022-07-05T01:23:57;18.00;99.90
27270;DHT22;14769;56.934;24.176;2022-07-05T01:24:59;17.90;99.90
27270;DHT22;14769;56.934;24.176;2022-07-05T01:26:02;17.90;99.90
27270;DHT22;14769;56.934;24.176;2022-07-05T01:27:05;17.90;99.90
27270;DHT22;14769;56.934;24.176;2022-07-05T01:28:07;18.00;99.90
27270;DHT22;14769;56.934;24.176;2022-07-05T01:29:10;18.00;99.90
27270;DHT22;14769;56.934;24.176;2022-07-05T01:30:12;18.00;99.90
27270;DHT22;14769;56.934;24.176;2022-07-05T01:31:14;17.90;99.90
27270;DHT22;14769;56.934;24.176;2022-07-05T01:32:17;18.00;99.90
27270;DHT22;14769;56.934;24.176;2022-07-05T01:33:19;17.90;99.90
27270;DHT22;14769;56.934;24.176;2022-07-05T01:34:28;17.90;99.90
27270;DHT22;14769;56.934;24.176;2022-07-05T01:35:30;17.90;99.90
27270;DHT22;14769;56.934;24.176;2022-07-05T01:36:33;17.90;99.90
27270;DHT22;14769;56.934;24.176;2022-07-05T01:37:36;17.90;99.90
27270;DHT22;14769;56.934;24.176;2022-07-05T01:38:38;17.90;99.90
27270;DHT22;14769;56.934;24.176;2022-07-05T01:39:40;17.80;99.90
27270;DHT22;14769;56.934;24.176;2022-07-05T01:40:42;17.80;99.90
27270;DHT22;14769;56.934;24.176;2022-07-05T01:41:45;17.80;99.90
27270;DHT22;14769;56.934;24.176;2022-07-05T01:42:50;17.80;99.90
27270;DHT22;14769;56.934;24.176;2022-07-05T01:43:52;17.80;99.90
27270;DHT22;14769;56.934;24.176;2022-07-05T01:44:54;17.80;99.90
27270;DHT22;14769;56.934;24.176;2022-07-05T01:45:57;17.80;99.90
27270;DHT22;14769;56.934;24.176;2022-07-05T01:47:05;17.80;99.90
27270;DHT22;14769;56.934;24.176;2022-07-05T01:48:12;17.80;99.90
27270;DHT22;14769;56.934;24.176;2022-07-05T01:49:15;17.80;99.90
27270;DHT22;14769;56.934;24.176;2022-07-05T01:50:20;17.80;99.90
27270;DHT22;14769;56.934;24.176;2022-07-05T01:51:27;17.80;99.90
27270;DHT22;14769;56.934;24.176;2022-07-05T01:52:32;17.80;99.90
27270;DHT22;14769;56.934;24.176;2022-07-05T01:53:36;17.70;99.90
27270;DHT22;14769;56.934;24.176;2022-07-05T01:54:40;17.70;99.90
27270;DHT22;14769;56.934;24.176;2022-07-05T01:55:44;17.70;99.90
27270;DHT22;14769;56.934;24.176;2022-07-05T01:56:46;17.70;99.90
27270;DHT22;14769;56.934;24.176;2022-07-05T01:57:48;17.70;99.90
27270;DHT22;14769;56.934;24.176;2022-07-05T01:58:51;17.70;99.90
27270;DHT22;14769;56.934;24.176;2022-07-05T01:59:55;17.70;99.90
27270;DHT22;14769;56.934;24.176;2022-07-05T02:00:58;17.70;99.90
27270;DHT22;14769;56.934;24.176;2022-07-05T02:02:01;17.70;99.90
27270;DHT22;14769;56.934;24.176;2022-07-05T02:03:03;17.70;99.90
27270;DHT22;14769;56.934;24.176;2022-07-05T02:04:08;17.70;99.90
27270;DHT22;14769;56.934;24.176;2022-07-05T02:05:10;17.70;99.90
27270;DHT22;14769;56.934;24.176;2022-07-05T02:06:12;17.70;99.90
27270;DHT22;14769;56.934;24.176;2022-07-05T02:07:14;17.60;99.90
27270;DHT22;14769;56.934;24.176;2022-07-05T02:08:17;17.60;99.90
27270;DHT22;14769;56.934;24.176;2022-07-05T02:09:20;17.60;99.90
27270;DHT22;14769;56.934;24.176;2022-07-05T02:10:21;17.50;99.90
27270;DHT22;14769;56.934;24.176;2022-07-05T02:11:23;17.50;99.90
27270;DHT22;14769;56.934;24.176;2022-07-05T02:12:25;17.50;99.90
27270;DHT22;14769;56.934;24.176;2022-07-05T02:13:27;17.50;99.90
27270;DHT22;14769;56.934;24.176;2022-07-05T02:14:29;17.50;99.90
27270;DHT22;14769;56.934;24.176;2022-07-05T02:15:32;17.50;99.90
27270;DHT22;14769;56.934;24.176;2022-07-05T02:16:35;17.50;99.90
27270;DHT22;14769;56.934;24.176;2022-07-05T02:17:37;17.50;99.90
27270;DHT22;14769;56.934;24.176;2022-07-05T02:18:39;17.50;99.90
27270;DHT22;14769;56.934;24.176;2022-07-05T02:19:42;17.50;99.90
27270;DHT22;14769;56.934;24.176;2022-07-05T02:20:44;17.50;99.90
27270;DHT22;14769;56.934;24.176;2022-07-05T02:21:46;17.50;99.90
27270;DHT22;14769;56.934;24.176;2022-07-05T02:22:48;17.40;99.90
27270;DHT22;14769;56.934;24.176;2022-07-05T02:23:50;17.40;99.90
27270;DHT22;14769;56.934;24.176;2022-07-05T02:24:52;17.40;99.90
27270;DHT22;14769;56.934;24.176;2022-07-05T02:25:54;17.40;99.90
27270;DHT22;14769;56.934;24.176;2022-07-05T02:26:56;17.40;99.90
27270;DHT22;14769;56.934;24.176;2022-07-05T02:27:59;17.40;99.90
27270;DHT22;14769;56.934;24.176;2022-07-05T02:29:02;17.40;99.90
27270;DHT22;14769;56.934;24.176;2022-07-05T02:30:05;17.40;99.90
27270;DHT22;14769;56.934;24.176;2022-07-05T02:31:08;17.40;99.90
27270;DHT22;14769;56.934;24.176;2022-07-05T02:32:10;17.40;99.90
27270;DHT22;14769;56.934;24.176;2022-07-05T02:33:12;17.40;99.90
27270;DHT22;14769;56.934;24.176;2022-07-05T02:34:14;17.40;99.90
27270;DHT22;14769;56.934;24.176;2022-07-05T02:35:16;17.40;99.90
27270;DHT22;14769;56.934;24.176;2022-07-05T02:36:18;17.40;99.90
27270;DHT22;14769;56.934;24.176;2022-07-05T02:37:21;17.40;99.90
27270;DHT22;14769;56.934;24.176;2022-07-05T02:38:23;17.40;99.90
27270;DHT22;14769;56.934;24.176;2022-07-05T02:39:25;17.40;99.90
27270;DHT22;14769;56.934;24.176;2022-07-05T02:40:27;17.40;99.90
27270;DHT22;14769;56.934;24.176;2022-07-05T02:41:29;17.40;99.90
27270;DHT22;14769;56.934;24.176;2022-07-05T02:42:31;17.40;99.90
27270;DHT22;14769;56.934;24.176;2022-07-05T02:43:33;17.40;99.90
27270;DHT22;14769;56.934;24.176;2022-07-05T02:44:36;17.40;99.90
27270;DHT22;14769;56.934;24.176;2022-07-05T02:45:38;17.30;99.90
27270;DHT22;14769;56.934;24.176;2022-07-05T02:46:40;17.30;99.90
27270;DHT22;14769;56.934;24.176;2022-07-05T02:47:42;17.30;99.90
27270;DHT22;14769;56.934;24.176;2022-07-05T02:48:44;17.30;99.90
27270;DHT22;14769;56.934;24.176;2022-07-05T02:49:46;17.30;99.90
27270;DHT22;14769;56.934;24.176;2022-07-05T02:50:48;17.40;99.90
27270;DHT22;14769;56.934;24.176;2022-07-05T02:51:50;17.40;99.90
27270;DHT22;14769;56.934;24.176;2022-07-05T02:52:52;17.40;99.90
27270;DHT22;14769;56.934;24.176;2022-07-05T02:53:54;17.40;99.90
27270;DHT22;14769;56.934;24.176;2022-07-05T02:54:56;17.40;99.90
27270;DHT22;14769;56.934;24.176;2022-07-05T02:55:58;17.40;99.90
27270;DHT22;14769;56.934;24.176;2022-07-05T02:57:00;17.50;99.90
27270;DHT22;14769;56.934;24.176;2022-07-05T02:58:02;17.50;99.90
27270;DHT22;14769;56.934;24.176;2022-07-05T02:59:04;17.50;99.90
27270;DHT22;14769;56.934;24.176;2022-07-05T03:00:08;17.50;99.90
27270;DHT22;14769;56.934;24.176;2022-07-05T03:01:12;17.50;99.90
27270;DHT22;14769;56.934;24.176;2022-07-05T03:02:14;17.40;99.90
27270;DHT22;14769;56.934;24.176;2022-07-05T03:03:16;17.40;99.90
27270;DHT22;14769;56.934;24.176;2022-07-05T03:04:18;17.50;99.90
27270;DHT22;14769;56.934;24.176;2022-07-05T03:05:21;17.50;99.90
27270;DHT22;14769;56.934;24.176;2022-07-05T03:06:23;17.50;99.90
27270;DHT22;14769;56.934;24.176;2022-07-05T03:07:25;17.40;99.90
27270;DHT22;14769;56.934;24.176;2022-07-05T03:08:27;17.40;99.90
27270;DHT22;14769;56.934;24.176;2022-07-05T03:09:29;17.40;99.90
27270;DHT22;14769;56.934;24.176;2022-07-05T03:10:32;17.40;99.90
27270;DHT22;14769;56.934;24.176;2022-07-05T03:11:35;17.40;99.90
27270;DHT22;14769;56.934;24.176;2022-07-05T03:12:37;17.30;99.90
27270;DHT22;14769;56.934;24.176;2022-07-05T03:13:39;17.40;99.90
27270;DHT22;14769;56.934;24.176;2022-07-05T03:14:41;17.40;99.90
27270;DHT22;14769;56.934;24.176;2022-07-05T03:15:44;17.40;99.90
27270;DHT22;14769;56.934;24.176;2022-07-05T03:16:46;17.30;99.90
27270;DHT22;14769;56.934;24.176;2022-07-05T03:17:48;17.30;99.90
27270;DHT22;14769;56.934;24.176;2022-07-05T03:18:50;17.30;99.90
27270;DHT22;14769;56.934;24.176;2022-07-05T03:19:52;17.30;99.90
27270;DHT22;14769;56.934;24.176;2022-07-05T03:20:54;17.40;99.90
27270;DHT22;14769;56.934;24.176;2022-07-05T03:21:56;17.40;99.90
27270;DHT22;14769;56.934;24.176;2022-07-05T03:22:58;17.40;99.90
27270;DHT22;14769;56.934;24.176;2022-07-05T03:24:01;17.40;99.90
27270;DHT22;14769;56.934;24.176;2022-07-05T03:25:04;17.40;99.90
27270;DHT22;14769;56.934;24.176;2022-07-05T03:26:06;17.40;99.90
27270;DHT22;14769;56.934;24.176;2022-07-05T03:27:08;17.40;99.90
27270;DHT22;14769;56.934;24.176;2022-07-05T03:28:10;17.50;99.90
27270;DHT22;14769;56.934;24.176;2022-07-05T03:29:12;17.50;99.90
27270;DHT22;14769;56.934;24.176;2022-07-05T03:30:14;17.40;99.90
27270;DHT22;14769;56.934;24.176;2022-07-05T03:31:18;17.40;99.90
27270;DHT22;14769;56.934;24.176;2022-07-05T03:32:20;17.40;99.90
27270;DHT22;14769;56.934;24.176;2022-07-05T03:33:22;17.40;99.90
27270;DHT22;14769;56.934;24.176;2022-07-05T03:34:30;17.40;99.90
27270;DHT22;14769;56.934;24.176;2022-07-05T03:35:32;17.40;99.90
27270;DHT22;14769;56.934;24.176;2022-07-05T03:36:35;17.50;99.90
27270;DHT22;14769;56.934;24.176;2022-07-05T03:37:37;17.40;99.90
27270;DHT22;14769;56.934;24.176;2022-07-05T03:38:40;17.50;99.90
27270;DHT22;14769;56.934;24.176;2022-07-05T03:39:42;17.50;99.90
27270;DHT22;14769;56.934;24.176;2022-07-05T03:40:44;17.60;99.90
27270;DHT22;14769;56.934;24.176;2022-07-05T03:41:46;17.60;99.90
27270;DHT22;14769;56.934;24.176;2022-07-05T03:42:48;17.50;99.90
27270;DHT22;14769;56.934;24.176;2022-07-05T03:43:50;17.60;99.90
27270;DHT22;14769;56.934;24.176;2022-07-05T03:44:52;17.60;99.90
27270;DHT22;14769;56.934;24.176;2022-07-05T03:45:54;17.60;99.90
27270;DHT22;14769;56.934;24.176;2022-07-05T03:46:57;17.60;99.90
27270;DHT22;14769;56.934;24.176;2022-07-05T03:48:00;17.60;99.90
27270;DHT22;14769;56.934;24.176;2022-07-05T03:49:22;17.60;99.90
27270;DHT22;14769;56.934;24.176;2022-07-05T03:50:24;17.60;99.90
27270;DHT22;14769;56.934;24.176;2022-07-05T03:51:25;17.60;99.90
27270;DHT22;14769;56.934;24.176;2022-07-05T03:52:27;17.70;99.90
27270;DHT22;14769;56.934;24.176;2022-07-05T03:53:29;17.70;99.90
27270;DHT22;14769;56.934;24.176;2022-07-05T03:54:31;17.70;99.90
27270;DHT22;14769;56.934;24.176;2022-07-05T03:55:33;17.70;99.90
27270;DHT22;14769;56.934;24.176;2022-07-05T03:56:35;17.70;99.90
27270;DHT22;14769;56.934;24.176;2022-07-05T03:57:37;17.80;99.90
27270;DHT22;14769;56.934;24.176;2022-07-05T03:58:38;17.80;99.90
27270;DHT22;14769;56.934;24.176;2022-07-05T03:59:40;17.80;99.90
27270;DHT22;14769;56.934;24.176;2022-07-05T04:00:43;17.80;99.90
27270;DHT22;14769;56.934;24.176;2022-07-05T04:01:45;17.90;99.90
27270;DHT22;14769;56.934;24.176;2022-07-05T04:02:47;17.90;99.90
27270;DHT22;14769;56.934;24.176;2022-07-05T04:03:49;17.80;99.90
27270;DHT22;14769;56.934;24.176;2022-07-05T04:04:50;17.80;99.90
27270;DHT22;14769;56.934;24.176;2022-07-05T04:05:52;17.90;99.90
27270;DHT22;14769;56.934;24.176;2022-07-05T04:06:54;17.90;99.90
27270;DHT22;14769;56.934;24.176;2022-07-05T04:07:56;18.00;99.90
27270;DHT22;14769;56.934;24.176;2022-07-05T04:08:58;18.10;99.90
27270;DHT22;14769;56.934;24.176;2022-07-05T04:10:00;18.10;99.90
27270;DHT22;14769;56.934;24.176;2022-07-05T04:11:03;18.20;99.90
27270;DHT22;14769;56.934;24.176;2022-07-05T04:12:06;18.20;99.90
27270;DHT22;14769;56.934;24.176;2022-07-05T04:13:08;18.20;99.90
27270;DHT22;14769;56.934;24.176;2022-07-05T04:14:09;18.20;99.90
27270;DHT22;14769;56.934;24.176;2022-07-05T04:15:12;18.10;99.90
27270;DHT22;14769;56.934;24.176;2022-07-05T04:16:15;18.10;99.90
27270;DHT22;14769;56.934;24.176;2022-07-05T04:17:17;18.20;99.90
27270;DHT22;14769;56.934;24.176;2022-07-05T04:18:19;18.20;99.90
27270;DHT22;14769;56.934;24.176;2022-07-05T04:19:20;18.20;99.90
27270;DHT22;14769;56.934;24.176;2022-07-05T04:20:23;18.20;99.90
27270;DHT22;14769;56.934;24.176;2022-07-05T04:21:25;18.20;99.90
27270;DHT22;14769;56.934;24.176;2022-07-05T04:22:27;18.30;99.90
27270;DHT22;14769;56.934;24.176;2022-07-05T04:23:29;18.20;99.90
27270;DHT22;14769;56.934;24.176;2022-07-05T04:24:31;18.30;99.90
27270;DHT22;14769;56.934;24.176;2022-07-05T04:25:54;18.30;99.90
27270;DHT22;14769;56.934;24.176;2022-07-05T04:26:59;18.30;99.90
27270;DHT22;14769;56.934;24.176;2022-07-05T04:28:00;18.30;99.90
27270;DHT22;14769;56.934;24.176;2022-07-05T04:29:02;18.40;99.90
27270;DHT22;14769;56.934;24.176;2022-07-05T04:30:04;18.50;99.90
27270;DHT22;14769;56.934;24.176;2022-07-05T04:31:06;18.40;99.90
27270;DHT22;14769;56.934;24.176;2022-07-05T04:32:08;18.50;99.90
27270;DHT22;14769;56.934;24.176;2022-07-05T04:33:10;18.40;99.90
27270;DHT22;14769;56.934;24.176;2022-07-05T04:34:12;18.40;99.90
27270;DHT22;14769;56.934;24.176;2022-07-05T04:35:14;18.50;99.90
27270;DHT22;14769;56.934;24.176;2022-07-05T04:36:16;18.50;99.90
27270;DHT22;14769;56.934;24.176;2022-07-05T04:37:18;18.50;99.90
27270;DHT22;14769;56.934;24.176;2022-07-05T04:38:20;18.50;99.90
27270;DHT22;14769;56.934;24.176;2022-07-05T04:39:22;18.50;99.90
27270;DHT22;14769;56.934;24.176;2022-07-05T04:40:24;18.40;99.90
27270;DHT22;14769;56.934;24.176;2022-07-05T04:41:26;18.50;99.90
27270;DHT22;14769;56.934;24.176;2022-07-05T04:42:28;18.50;99.90
27270;DHT22;14769;56.934;24.176;2022-07-05T04:43:29;18.50;99.90
27270;DHT22;14769;56.934;24.176;2022-07-05T04:44:31;18.50;99.90
27270;DHT22;14769;56.934;24.176;2022-07-05T04:45:33;18.50;99.90
27270;DHT22;14769;56.934;24.176;2022-07-05T04:46:35;18.50;99.90
27270;DHT22;14769;56.934;24.176;2022-07-05T04:47:37;18.50;99.90
27270;DHT22;14769;56.934;24.176;2022-07-05T04:48:38;18.60;99.90
27270;DHT22;14769;56.934;24.176;2022-07-05T04:49:40;18.60;99.90
27270;DHT22;14769;56.934;24.176;2022-07-05T04:50:42;18.70;99.90
27270;DHT22;14769;56.934;24.176;2022-07-05T04:51:44;18.70;99.90
27270;DHT22;14769;56.934;24.176;2022-07-05T04:52:48;18.80;99.90
27270;DHT22;14769;56.934;24.176;2022-07-05T04:53:49;18.90;99.90
27270;DHT22;14769;56.934;24.176;2022-07-05T04:54:52;18.90;99.90
27270;DHT22;14769;56.934;24.176;2022-07-05T04:55:53;19.00;99.90
27270;DHT22;14769;56.934;24.176;2022-07-05T04:56:55;18.90;99.90
27270;DHT22;14769;56.934;24.176;2022-07-05T04:57:57;19.00;99.90
27270;DHT22;14769;56.934;24.176;2022-07-05T04:58:59;19.00;99.90
27270;DHT22;14769;56.934;24.176;2022-07-05T05:00:01;19.10;99.90
27270;DHT22;14769;56.934;24.176;2022-07-05T05:01:03;19.10;99.90
27270;DHT22;14769;56.934;24.176;2022-07-05T05:02:05;19.20;99.90
27270;DHT22;14769;56.934;24.176;2022-07-05T05:03:08;19.20;99.90
27270;DHT22;14769;56.934;24.176;2022-07-05T05:04:09;19.20;99.90
27270;DHT22;14769;56.934;24.176;2022-07-05T05:05:11;19.20;99.90
27270;DHT22;14769;56.934;24.176;2022-07-05T05:06:13;19.30;99.90
27270;DHT22;14769;56.934;24.176;2022-07-05T05:07:15;19.30;99.90
27270;DHT22;14769;56.934;24.176;2022-07-05T05:08:17;19.30;99.90
27270;DHT22;14769;56.934;24.176;2022-07-05T05:09:19;19.30;99.90
27270;DHT22;14769;56.934;24.176;2022-07-05T05:10:22;19.30;99.90
27270;DHT22;14769;56.934;24.176;2022-07-05T05:11:24;19.30;99.90
27270;DHT22;14769;56.934;24.176;2022-07-05T05:12:26;19.40;99.90
27270;DHT22;14769;56.934;24.176;2022-07-05T05:13:27;19.40;99.90
27270;DHT22;14769;56.934;24.176;2022-07-05T05:14:29;19.40;99.90
27270;DHT22;14769;56.934;24.176;2022-07-05T05:15:31;19.40;99.90
27270;DHT22;14769;56.934;24.176;2022-07-05T05:16:33;19.40;99.90
27270;DHT22;14769;56.934;24.176;2022-07-05T05:17:40;19.40;99.90
27270;DHT22;14769;56.934;24.176;2022-07-05T05:18:42;19.40;99.90
27270;DHT22;14769;56.934;24.176;2022-07-05T05:19:44;19.40;99.90
27270;DHT22;14769;56.934;24.176;2022-07-05T05:20:46;19.50;99.90
27270;DHT22;14769;56.934;24.176;2022-07-05T05:21:48;19.50;99.90
27270;DHT22;14769;56.934;24.176;2022-07-05T05:22:50;19.50;99.90
27270;DHT22;14769;56.934;24.176;2022-07-05T05:23:52;19.40;99.90
27270;DHT22;14769;56.934;24.176;2022-07-05T05:24:54;19.40;99.90
27270;DHT22;14769;56.934;24.176;2022-07-05T05:25:55;19.50;99.90
27270;DHT22;14769;56.934;24.176;2022-07-05T05:26:57;19.50;99.90
27270;DHT22;14769;56.934;24.176;2022-07-05T05:28:00;19.60;99.90
27270;DHT22;14769;56.934;24.176;2022-07-05T05:29:02;19.60;99.90
27270;DHT22;14769;56.934;24.176;2022-07-05T05:30:04;19.70;99.90
27270;DHT22;14769;56.934;24.176;2022-07-05T05:31:07;19.70;99.90
27270;DHT22;14769;56.934;24.176;2022-07-05T05:32:09;19.70;99.90
27270;DHT22;14769;56.934;24.176;2022-07-05T05:33:10;19.70;99.90
27270;DHT22;14769;56.934;24.176;2022-07-05T05:34:12;19.70;99.90
27270;DHT22;14769;56.934;24.176;2022-07-05T05:35:14;19.80;99.90
27270;DHT22;14769;56.934;24.176;2022-07-05T05:36:18;19.80;99.90
27270;DHT22;14769;56.934;24.176;2022-07-05T05:37:20;19.80;99.90
27270;DHT22;14769;56.934;24.176;2022-07-05T05:38:21;19.90;99.90
27270;DHT22;14769;56.934;24.176;2022-07-05T05:39:23;19.80;99.90
27270;DHT22;14769;56.934;24.176;2022-07-05T05:40:26;19.80;99.90
27270;DHT22;14769;56.934;24.176;2022-07-05T05:41:27;19.80;99.90
27270;DHT22;14769;56.934;24.176;2022-07-05T05:42:29;19.90;99.90
27270;DHT22;14769;56.934;24.176;2022-07-05T05:43:31;19.90;99.90
27270;DHT22;14769;56.934;24.176;2022-07-05T05:44:33;19.90;99.90
27270;DHT22;14769;56.934;24.176;2022-07-05T05:45:35;20.00;99.90
27270;DHT22;14769;56.934;24.176;2022-07-05T05:46:37;19.90;99.90
27270;DHT22;14769;56.934;24.176;2022-07-05T05:47:59;19.90;99.90
27270;DHT22;14769;56.934;24.176;2022-07-05T05:49:01;20.00;99.90
27270;DHT22;14769;56.934;24.176;2022-07-05T05:50:03;19.90;99.90
27270;DHT22;14769;56.934;24.176;2022-07-05T05:51:05;19.90;99.90
27270;DHT22;14769;56.934;24.176;2022-07-05T05:52:07;20.00;99.90
27270;DHT22;14769;56.934;24.176;2022-07-05T05:53:09;20.00;99.90
27270;DHT22;14769;56.934;24.176;2022-07-05T05:54:11;20.10;99.90
27270;DHT22;14769;56.934;24.176;2022-07-05T05:55:12;20.20;99.90
27270;DHT22;14769;56.934;24.176;2022-07-05T05:56:14;20.20;99.90
27270;DHT22;14769;56.934;24.176;2022-07-05T05:57:16;20.20;99.90
27270;DHT22;14769;56.934;24.176;2022-07-05T05:58:20;20.20;99.90
27270;DHT22;14769;56.934;24.176;2022-07-05T05:59:22;20.20;99.90
27270;DHT22;14769;56.934;24.176;2022-07-05T06:00:27;20.10;99.90
27270;DHT22;14769;56.934;24.176;2022-07-05T06:01:29;20.20;99.90
27270;DHT22;14769;56.934;24.176;2022-07-05T06:02:31;20.30;99.90
27270;DHT22;14769;56.934;24.176;2022-07-05T06:03:33;20.30;99.90
27270;DHT22;14769;56.934;24.176;2022-07-05T06:04:35;20.30;99.90
27270;DHT22;14769;56.934;24.176;2022-07-05T06:05:37;20.30;99.90
27270;DHT22;14769;56.934;24.176;2022-07-05T06:06:39;20.40;99.90
27270;DHT22;14769;56.934;24.176;2022-07-05T06:08:46;20.50;99.90
27270;DHT22;14769;56.934;24.176;2022-07-05T06:09:48;20.50;99.90
27270;DHT22;14769;56.934;24.176;2022-07-05T06:10:50;20.50;99.90
27270;DHT22;14769;56.934;24.176;2022-07-05T06:12:00;20.50;99.90
27270;DHT22;14769;56.934;24.176;2022-07-05T06:13:05;20.60;99.90
27270;DHT22;14769;56.934;24.176;2022-07-05T06:14:05;20.60;99.90
27270;DHT22;14769;56.934;24.176;2022-07-05T06:15:08;20.60;99.90
27270;DHT22;14769;56.934;24.176;2022-07-05T06:16:10;20.60;99.90
27270;DHT22;14769;56.934;24.176;2022-07-05T06:17:12;20.60;99.90
27270;DHT22;14769;56.934;24.176;2022-07-05T06:18:14;20.60;99.90
27270;DHT22;14769;56.934;24.176;2022-07-05T06:19:15;20.50;99.90
27270;DHT22;14769;56.934;24.176;2022-07-05T06:20:20;20.50;99.90
27270;DHT22;14769;56.934;24.176;2022-07-05T06:21:22;20.50;99.90
27270;DHT22;14769;56.934;24.176;2022-07-05T06:22:24;20.50;99.90
27270;DHT22;14769;56.934;24.176;2022-07-05T06:23:26;20.50;99.90
27270;DHT22;14769;56.934;24.176;2022-07-05T06:24:27;20.50;99.90
27270;DHT22;14769;56.934;24.176;2022-07-05T06:25:30;20.40;99.90
27270;DHT22;14769;56.934;24.176;2022-07-05T06:26:32;20.50;99.90
27270;DHT22;14769;56.934;24.176;2022-07-05T06:27:38;20.50;99.90
27270;DHT22;14769;56.934;24.176;2022-07-05T06:28:40;20.60;99.90
27270;DHT22;14769;56.934;24.176;2022-07-05T06:29:42;20.70;99.90